createdAt,value
2019-05-21T00:00:52.518Z,18.69
2019-05-21T00:03:25.298Z,18.67
2019-05-21T00:05:57.393Z,18.68
2019-05-21T00:08:30.770Z,18.69
2019-05-21T00:11:02.757Z,18.67
2019-05-21T00:13:34.722Z,18.62
2019-05-21T00:16:06.696Z,18.61
2019-05-21T00:18:38.700Z,18.63
2019-05-21T00:21:10.746Z,18.60
2019-05-21T00:23:42.866Z,18.56
2019-05-21T00:26:14.960Z,18.53
2019-05-21T00:29:41.554Z,18.50
2019-05-21T00:33:08.040Z,18.45
2019-05-21T00:36:36.248Z,18.42
2019-05-21T00:40:02.648Z,18.39
2019-05-21T00:42:39.214Z,18.31
2019-05-21T00:45:12.946Z,18.30
2019-05-21T00:47:44.934Z,18.26
2019-05-21T00:50:17.071Z,18.23
2019-05-21T00:52:49.066Z,18.15
2019-05-21T00:55:21.022Z,18.09
2019-05-21T00:57:53.379Z,18.05
2019-05-21T01:00:25.332Z,17.97
2019-05-21T01:02:57.326Z,17.87
2019-05-21T01:05:29.442Z,17.83
2019-05-21T01:08:01.421Z,17.83
2019-05-21T01:10:33.863Z,17.85
2019-05-21T01:13:08.599Z,17.87
2019-05-21T01:15:42.260Z,17.85
2019-05-21T01:18:14.238Z,17.85
2019-05-21T01:20:46.214Z,17.87
2019-05-21T01:23:18.284Z,17.92
2019-05-21T01:25:56.784Z,17.96
2019-05-21T01:28:28.783Z,17.98
2019-05-21T01:31:00.926Z,17.97
2019-05-21T01:33:32.926Z,17.93
2019-05-21T01:36:05.039Z,17.90
2019-05-21T01:38:37.124Z,17.85
2019-05-21T01:41:09.170Z,17.80
2019-05-21T01:43:41.222Z,17.76
2019-05-21T01:46:13.460Z,17.73
2019-05-21T01:48:45.573Z,17.50
2019-05-21T01:51:17.531Z,17.67
2019-05-21T01:53:49.522Z,17.62
2019-05-21T01:56:21.583Z,17.55
2019-05-21T01:58:53.538Z,17.48
2019-05-21T02:01:25.845Z,17.41
2019-05-21T02:03:57.838Z,17.34
2019-05-21T02:06:29.871Z,17.29
2019-05-21T02:09:01.993Z,17.32
2019-05-21T02:11:34.047Z,17.35
2019-05-21T02:14:06.219Z,17.38
2019-05-21T02:16:38.593Z,17.39
2019-05-21T02:19:10.667Z,17.37
2019-05-21T02:21:42.642Z,17.38
2019-05-21T02:24:14.970Z,17.43
2019-05-21T02:26:47.329Z,17.48
2019-05-21T02:29:19.428Z,17.54
2019-05-21T02:31:51.482Z,17.60
2019-05-21T02:34:23.503Z,17.60
2019-05-21T02:36:55.619Z,17.55
2019-05-21T02:39:27.688Z,17.52
2019-05-21T02:41:59.716Z,17.51
2019-05-21T02:44:31.719Z,17.52
2019-05-21T02:47:03.799Z,17.51
2019-05-21T02:49:35.880Z,17.47
2019-05-21T02:52:07.868Z,17.46
2019-05-21T02:54:42.084Z,17.45
2019-05-21T02:57:14.201Z,17.39
2019-05-21T02:59:47.824Z,17.38
2019-05-21T03:02:24.109Z,17.34
2019-05-21T03:04:56.123Z,17.32
2019-05-21T03:07:28.059Z,17.29
2019-05-21T03:10:00.174Z,17.33
2019-05-21T03:12:32.162Z,17.41
2019-05-21T03:15:05.815Z,17.49
2019-05-21T03:17:37.784Z,17.53
2019-05-21T03:20:10.853Z,17.56
2019-05-21T03:22:42.979Z,17.56
2019-05-21T03:25:18.737Z,17.57
2019-05-21T03:27:50.672Z,17.61
2019-05-21T03:30:22.927Z,17.67
2019-05-21T03:32:54.958Z,17.69
2019-05-21T03:35:27.146Z,17.70
2019-05-21T03:37:59.376Z,17.69
2019-05-21T03:40:31.412Z,17.69
2019-05-21T03:43:03.662Z,17.69
2019-05-21T03:45:35.632Z,17.71
2019-05-21T03:48:14.204Z,17.73
2019-05-21T03:50:47.952Z,17.77
2019-05-21T03:53:19.979Z,17.77
2019-05-21T03:55:52.107Z,17.77
2019-05-21T03:58:24.169Z,17.76
2019-05-21T04:00:56.213Z,17.75
2019-05-21T04:03:28.223Z,17.71
2019-05-21T04:06:00.293Z,17.67
2019-05-21T04:08:32.305Z,17.63
2019-05-21T04:11:04.382Z,17.61
2019-05-21T04:13:36.430Z,17.57
2019-05-21T04:16:10.316Z,17.55
2019-05-21T04:18:44.377Z,17.57
2019-05-21T04:21:16.404Z,17.59
2019-05-21T04:23:49.045Z,17.61
2019-05-21T04:26:21.279Z,17.62
2019-05-21T04:28:53.293Z,17.65
2019-05-21T04:31:27.020Z,17.65
2019-05-21T04:33:59.326Z,17.61
2019-05-21T04:36:31.768Z,17.56
2019-05-21T04:39:05.116Z,17.54
2019-05-21T04:41:37.189Z,17.53
2019-05-21T04:44:09.338Z,17.53
2019-05-21T04:46:41.431Z,17.54
2019-05-21T04:49:13.440Z,17.59
2019-05-21T04:51:45.458Z,17.68
2019-05-21T04:54:17.502Z,17.72
2019-05-21T04:56:49.521Z,17.75
2019-05-21T04:59:21.730Z,17.78
2019-05-21T05:01:53.788Z,17.83
2019-05-21T05:04:25.738Z,17.87
2019-05-21T05:06:57.815Z,17.91
2019-05-21T05:09:29.776Z,17.94
2019-05-21T05:12:01.910Z,17.94
2019-05-21T05:14:34.086Z,17.94
2019-05-21T05:17:06.049Z,17.97
2019-05-21T05:19:38.059Z,18.01
2019-05-21T05:22:10.202Z,18.04
2019-05-21T05:24:42.178Z,18.05
2019-05-21T05:27:14.330Z,18.01
2019-05-21T05:29:46.638Z,17.96
2019-05-21T05:32:18.605Z,17.99
2019-05-21T05:34:50.594Z,18.03
2019-05-21T05:37:23.072Z,18.05
2019-05-21T05:39:55.274Z,18.06
2019-05-21T05:42:27.313Z,18.03
2019-05-21T05:44:59.282Z,18.00
2019-05-21T05:47:31.263Z,17.95
2019-05-21T05:50:06.063Z,17.96
2019-05-21T05:52:38.215Z,17.99
2019-05-21T05:55:10.320Z,18.06
2019-05-21T05:57:42.806Z,18.10
2019-05-21T06:00:16.041Z,18.17
2019-05-21T06:02:48.104Z,18.23
2019-05-21T06:05:21.605Z,18.29
2019-05-21T06:07:59.788Z,18.33
2019-05-21T06:10:27.559Z,18.40
2019-05-21T06:12:59.518Z,18.48
2019-05-21T06:15:31.722Z,18.49
2019-05-21T06:18:03.727Z,18.47
2019-05-21T06:20:35.736Z,18.48
2019-05-21T06:23:07.994Z,18.51
2019-05-21T06:25:40.056Z,18.56
2019-05-21T06:28:12.101Z,18.59
2019-05-21T06:30:44.133Z,18.66
2019-05-21T06:33:16.110Z,18.73
2019-05-21T06:35:48.152Z,18.77
2019-05-21T06:38:20.467Z,18.80
2019-05-21T06:40:52.500Z,18.80
2019-05-21T06:43:24.745Z,18.82
2019-05-21T06:45:56.799Z,18.90
2019-05-21T06:48:33.388Z,18.94
2019-05-21T06:51:05.655Z,19.01
2019-05-21T06:53:37.630Z,19.08
2019-05-21T06:56:09.616Z,19.12
2019-05-21T06:58:41.931Z,19.19
2019-05-21T07:01:13.977Z,19.25
2019-05-21T07:03:46.095Z,19.25
2019-05-21T07:06:18.046Z,19.25
2019-05-21T07:08:50.089Z,19.27
2019-05-21T07:11:22.054Z,19.24
2019-05-21T07:13:54.041Z,19.19
2019-05-21T07:16:26.377Z,19.14
2019-05-21T07:18:58.363Z,19.11
2019-05-21T07:21:30.478Z,19.09
2019-05-21T07:24:02.680Z,19.06
2019-05-21T07:26:35.272Z,19.06
2019-05-21T07:29:13.916Z,19.07
2019-05-21T07:32:09.011Z,19.05
2019-05-21T07:34:38.871Z,19.02
2019-05-21T07:37:21.568Z,19.03
2019-05-21T07:39:57.641Z,19.03
2019-05-21T07:42:31.650Z,19.02
2019-05-21T07:45:09.339Z,19.08
2019-05-21T07:47:41.641Z,19.11
2019-05-21T07:50:18.969Z,19.19
2019-05-21T07:52:51.044Z,19.28
2019-05-21T07:55:24.430Z,19.35
2019-05-21T07:57:56.583Z,19.39
2019-05-21T08:00:28.660Z,19.28
2019-05-21T08:03:00.657Z,19.27
2019-05-21T08:05:33.214Z,19.32
2019-05-21T08:08:08.729Z,19.38
2019-05-21T08:10:41.358Z,19.43
2019-05-21T08:13:15.978Z,19.41
2019-05-21T08:15:49.965Z,19.44
2019-05-21T08:18:23.898Z,19.50
2019-05-21T08:20:58.337Z,19.57
2019-05-21T08:23:33.336Z,19.61
2019-05-21T08:26:08.269Z,19.48
2019-05-21T08:28:40.668Z,19.47
2019-05-21T08:31:12.810Z,19.59
2019-05-21T08:33:45.367Z,19.65
2019-05-21T08:36:24.599Z,19.72
2019-05-21T08:38:59.627Z,19.84
2019-05-21T08:41:36.412Z,19.94
2019-05-21T08:44:12.379Z,20.05
2019-05-21T08:46:46.558Z,20.19
2019-05-21T08:49:18.663Z,20.32
2019-05-21T08:51:54.651Z,20.42
2019-05-21T08:54:45.702Z,20.45
2019-05-21T08:57:19.074Z,20.42
2019-05-21T08:59:51.422Z,20.38
2019-05-21T09:02:29.470Z,20.43
2019-05-21T09:05:01.566Z,20.45
2019-05-21T09:07:33.756Z,20.46
2019-05-21T09:10:09.069Z,20.44
2019-05-21T09:12:41.176Z,20.38
2019-05-21T09:15:16.721Z,20.31
2019-05-21T09:17:48.698Z,20.26
2019-05-21T09:20:22.397Z,20.11
2019-05-21T09:22:54.372Z,19.92
2019-05-21T09:25:26.538Z,19.80
2019-05-21T09:27:58.632Z,19.72
2019-05-21T09:30:33.348Z,19.63
2019-05-21T09:33:05.467Z,19.57
2019-05-21T09:35:39.205Z,19.52
2019-05-21T09:38:11.600Z,19.46
2019-05-21T09:40:43.688Z,19.41
2019-05-21T09:43:17.433Z,19.33
2019-05-21T09:45:49.521Z,19.29
2019-05-21T09:48:21.593Z,19.30
2019-05-21T09:50:53.835Z,19.38
2019-05-21T09:53:26.038Z,19.47
2019-05-21T09:56:00.134Z,19.54
2019-05-21T09:58:33.957Z,19.63
2019-05-21T10:01:13.941Z,19.68
2019-05-21T10:03:47.656Z,19.71
2019-05-21T10:06:19.971Z,19.68
2019-05-21T10:08:52.524Z,19.64
2019-05-21T10:11:25.031Z,19.60
2019-05-21T10:13:57.287Z,19.61
2019-05-21T10:16:29.450Z,19.64
2019-05-21T10:19:01.911Z,19.69
2019-05-21T10:21:34.205Z,19.71
2019-05-21T10:24:07.977Z,19.71
2019-05-21T10:26:40.328Z,19.72
2019-05-21T10:29:12.863Z,19.70
2019-05-21T10:31:44.876Z,19.68
2019-05-21T10:34:16.962Z,19.58
2019-05-21T10:36:49.064Z,19.51
2019-05-21T10:39:21.576Z,19.47
2019-05-21T10:41:53.782Z,19.48
2019-05-21T10:44:26.060Z,19.47
2019-05-21T10:46:58.335Z,19.48
2019-05-21T10:49:30.606Z,19.48
2019-05-21T10:52:04.035Z,19.44
2019-05-21T10:54:36.099Z,19.49
2019-05-21T10:57:08.216Z,19.60
2019-05-21T10:59:40.223Z,19.73
2019-05-21T11:02:13.978Z,19.86
2019-05-21T11:04:50.348Z,19.98
2019-05-21T11:07:23.115Z,20.05
2019-05-21T11:09:55.701Z,20.16
2019-05-21T11:12:27.735Z,20.23
2019-05-21T11:14:59.767Z,20.30
2019-05-21T11:17:48.065Z,20.36
2019-05-21T11:20:07.189Z,20.38
2019-05-21T11:22:39.613Z,20.40
2019-05-21T11:25:12.090Z,20.43
2019-05-21T11:27:47.538Z,20.46
2019-05-21T11:30:22.963Z,20.52
2019-05-21T11:32:58.267Z,20.55
2019-05-21T11:35:40.407Z,20.57
2019-05-21T11:38:12.577Z,20.60
2019-05-21T11:40:50.196Z,20.57
2019-05-21T11:43:18.856Z,20.49
2019-05-21T11:45:51.118Z,20.46
2019-05-21T11:48:24.432Z,20.41
2019-05-21T11:50:58.117Z,20.30
2019-05-21T11:53:32.036Z,20.20
2019-05-21T11:56:04.600Z,20.11
2019-05-21T11:58:39.718Z,20.03
2019-05-21T12:01:11.292Z,19.94
2019-05-21T12:03:43.511Z,19.86
2019-05-21T12:06:15.721Z,19.83
2019-05-21T12:08:56.156Z,19.80
2019-05-21T12:11:21.687Z,19.76
2019-05-21T12:13:53.767Z,19.73
2019-05-21T12:16:26.005Z,19.63
2019-05-21T12:18:58.162Z,19.57
2019-05-21T12:21:30.215Z,19.59
2019-05-21T12:24:03.863Z,19.65
2019-05-21T12:26:35.823Z,19.71
2019-05-21T12:29:09.779Z,19.74
2019-05-21T12:31:41.850Z,19.78
2019-05-21T12:34:14.358Z,19.81
2019-05-21T12:36:46.364Z,19.84
2019-05-21T12:39:18.897Z,19.86
2019-05-21T12:41:50.911Z,19.89
2019-05-21T12:44:23.078Z,19.86
2019-05-21T12:46:55.241Z,19.84
2019-05-21T12:49:27.351Z,19.83
2019-05-21T12:51:59.533Z,19.75
2019-05-21T12:54:31.595Z,19.71
2019-05-21T12:57:04.741Z,19.66
2019-05-21T12:59:36.747Z,19.63
2019-05-21T13:02:11.869Z,19.56
2019-05-21T13:04:45.065Z,19.46
2019-05-21T13:07:17.278Z,19.44
2019-05-21T13:09:49.501Z,19.41
2019-05-21T13:12:23.662Z,19.40
2019-05-21T13:14:55.814Z,19.39
2019-05-21T13:17:27.973Z,19.33
2019-05-21T13:20:02.700Z,19.30
2019-05-21T13:22:36.008Z,19.26
2019-05-21T13:25:09.672Z,19.29
2019-05-21T13:27:41.727Z,19.23
2019-05-21T13:30:14.466Z,19.35
2019-05-21T13:32:46.456Z,19.38
2019-05-21T13:35:18.505Z,19.41
2019-05-21T13:37:50.683Z,19.44
2019-05-21T13:40:25.346Z,19.47
2019-05-21T13:42:57.699Z,19.44
2019-05-21T13:45:29.685Z,19.36
2019-05-21T13:48:01.760Z,19.30
2019-05-21T13:50:34.702Z,19.32
2019-05-21T13:53:07.075Z,19.40
2019-05-21T13:55:40.172Z,19.44
2019-05-21T13:58:13.499Z,19.44
2019-05-21T14:01:08.423Z,19.43
2019-05-21T14:03:36.439Z,19.44
2019-05-21T14:06:11.775Z,19.47
2019-05-21T14:08:44.694Z,19.46
2019-05-21T14:11:17.421Z,19.46
2019-05-21T14:13:49.513Z,19.47
2019-05-21T14:16:21.858Z,19.52
2019-05-21T14:18:54.144Z,19.53
2019-05-21T14:21:26.326Z,19.55
2019-05-21T14:23:58.482Z,19.58
2019-05-21T14:26:30.644Z,19.57
2019-05-21T14:29:02.604Z,19.55
2019-05-21T14:31:35.579Z,19.53
2019-05-21T14:34:07.851Z,19.47
2019-05-21T14:36:39.934Z,19.45
2019-05-21T14:39:18.076Z,19.44
2019-05-21T14:41:50.195Z,19.47
2019-05-21T14:44:22.285Z,19.38
2019-05-21T14:46:57.327Z,19.47
2019-05-21T14:49:32.136Z,19.52
2019-05-21T14:52:05.630Z,19.58
2019-05-21T14:54:37.815Z,19.66
2019-05-21T14:57:12.622Z,19.73
2019-05-21T14:59:44.742Z,19.80
2019-05-21T15:02:16.848Z,19.87
2019-05-21T15:04:49.101Z,19.92
2019-05-21T15:07:21.423Z,20.00
2019-05-21T15:09:53.839Z,20.04
2019-05-21T15:12:25.951Z,20.05
2019-05-21T15:14:58.078Z,20.05
2019-05-21T15:17:30.200Z,20.04
2019-05-21T15:20:03.884Z,20.04
2019-05-21T15:22:37.601Z,20.05
2019-05-21T15:25:09.834Z,20.04
2019-05-21T15:27:41.819Z,20.04
2019-05-21T15:30:18.688Z,20.06
2019-05-21T15:33:47.285Z,20.08
2019-05-21T15:36:23.023Z,20.05
2019-05-21T15:42:33.397Z,20.01
2019-05-21T15:45:08.026Z,20.01
2019-05-21T15:47:40.486Z,20.06
2019-05-21T15:50:13.259Z,20.09
2019-05-21T15:52:45.645Z,20.10
2019-05-21T15:55:20.466Z,20.06
2019-05-21T15:57:53.054Z,19.97
2019-05-21T16:00:25.687Z,19.89
2019-05-21T16:02:57.786Z,19.88
2019-05-21T16:05:30.395Z,19.90
2019-05-21T16:08:06.672Z,19.92
2019-05-21T16:10:38.276Z,19.97
2019-05-21T16:13:11.874Z,20.03
2019-05-21T16:15:44.184Z,20.05
2019-05-21T16:18:18.066Z,20.05
2019-05-21T16:20:50.062Z,20.04
2019-05-21T16:23:24.873Z,19.99
2019-05-21T16:25:56.914Z,19.97
2019-05-21T16:28:28.905Z,19.98
2019-05-21T16:31:01.162Z,19.97
2019-05-21T16:33:34.050Z,19.87
2019-05-21T16:36:06.704Z,19.95
2019-05-21T16:38:38.833Z,19.95
2019-05-21T16:41:10.909Z,19.96
2019-05-21T16:43:43.056Z,19.95
2019-05-21T16:46:15.236Z,19.94
2019-05-21T16:48:47.219Z,19.92
2019-05-21T16:51:19.572Z,19.87
2019-05-21T16:53:51.571Z,19.81
2019-05-21T16:56:26.987Z,19.78
2019-05-21T16:58:59.763Z,19.73
2019-05-21T17:01:31.932Z,19.66
2019-05-21T17:04:04.038Z,19.59
2019-05-21T17:06:36.273Z,19.57
2019-05-21T17:09:13.502Z,19.55
2019-05-21T17:11:59.035Z,19.50
2019-05-21T17:14:19.361Z,19.48
2019-05-21T17:16:51.881Z,19.41
2019-05-21T17:19:24.872Z,19.40
2019-05-21T17:21:56.871Z,19.39
2019-05-21T17:24:28.962Z,19.37
2019-05-21T17:27:00.955Z,19.41
2019-05-21T17:29:32.951Z,19.45
2019-05-21T17:32:06.634Z,19.50
2019-05-21T17:34:39.202Z,19.53
2019-05-21T17:37:11.311Z,19.56
2019-05-21T17:39:43.257Z,19.57
2019-05-21T17:42:16.123Z,19.58
2019-05-21T17:44:48.185Z,19.57
2019-05-21T17:47:20.338Z,19.52
2019-05-21T17:49:52.462Z,19.50
2019-05-21T17:52:24.606Z,19.48
2019-05-21T17:54:57.316Z,19.46
2019-05-21T17:57:31.130Z,19.46
2019-05-21T18:00:04.961Z,19.47
2019-05-21T18:02:37.040Z,19.48
2019-05-21T18:05:09.724Z,19.48
2019-05-21T18:07:42.735Z,19.50
2019-05-21T18:10:16.577Z,19.50
2019-05-21T18:12:48.689Z,19.51
2019-05-21T18:15:21.499Z,19.51
2019-05-21T18:17:53.649Z,19.54
2019-05-21T18:20:25.967Z,19.53
2019-05-21T18:22:58.436Z,19.54
2019-05-21T18:25:31.440Z,19.57
2019-05-21T18:28:03.442Z,19.57
2019-05-21T18:30:35.624Z,19.56
2019-05-21T18:33:08.004Z,19.57
2019-05-21T18:35:40.357Z,19.55
2019-05-21T18:38:12.488Z,19.52
2019-05-21T18:40:44.802Z,19.50
2019-05-21T18:43:16.826Z,19.51
2019-05-21T18:45:48.811Z,19.52
2019-05-21T18:48:21.193Z,19.51
2019-05-21T18:50:54.036Z,19.50
2019-05-21T18:53:27.941Z,19.48
2019-05-21T18:56:00.846Z,19.47
2019-05-21T18:58:34.685Z,19.48
2019-05-21T19:01:10.784Z,19.48
2019-05-21T19:03:43.309Z,19.48
2019-05-21T19:06:15.365Z,19.49
2019-05-21T19:08:47.428Z,19.51
2019-05-21T19:11:19.479Z,19.53
2019-05-21T19:13:52.166Z,19.54
2019-05-21T19:16:24.221Z,19.55
2019-05-21T19:18:56.207Z,19.54
2019-05-21T19:21:28.366Z,19.52
2019-05-21T19:24:00.554Z,19.54
2019-05-21T19:26:32.675Z,19.53
2019-05-21T19:29:07.783Z,19.51
2019-05-21T19:31:39.598Z,19.51
2019-05-21T19:34:11.554Z,19.50
2019-05-21T19:36:43.603Z,19.50
2019-05-21T19:39:15.713Z,19.50
2019-05-21T19:41:48.256Z,19.48
2019-05-21T19:44:20.301Z,19.48
2019-05-21T19:46:52.271Z,19.48
2019-05-21T19:49:24.669Z,19.54
2019-05-21T19:51:56.645Z,19.58
2019-05-21T19:54:30.336Z,19.56
2019-05-21T19:57:02.485Z,19.54
2019-05-21T19:59:34.652Z,19.51
2019-05-21T20:02:08.570Z,19.51
2019-05-21T20:04:41.261Z,19.50
2019-05-21T20:07:17.293Z,19.41
2019-05-21T20:09:50.809Z,19.50
2019-05-21T20:12:23.826Z,19.50
2019-05-21T20:14:58.095Z,19.46
2019-05-21T20:17:31.300Z,19.43
2019-05-21T20:20:05.617Z,19.40
2019-05-21T20:22:37.999Z,19.37
2019-05-21T20:25:11.677Z,19.31
2019-05-21T20:27:45.702Z,19.22
2019-05-21T20:30:25.440Z,19.32
2019-05-21T20:32:57.776Z,19.29
2019-05-21T20:35:31.364Z,19.28
2019-05-21T20:38:10.543Z,19.27
2019-05-21T20:40:43.871Z,19.26
2019-05-21T20:43:16.426Z,19.27
2019-05-21T20:45:50.282Z,19.25
2019-05-21T20:48:24.033Z,19.25
2019-05-21T20:50:56.361Z,19.25
2019-05-21T20:53:28.889Z,19.24
2019-05-21T20:56:04.685Z,19.24
2019-05-21T20:58:41.573Z,19.24
2019-05-21T21:01:18.518Z,19.23
2019-05-21T21:03:52.507Z,19.26
2019-05-21T21:06:34.767Z,19.29
2019-05-21T21:08:59.076Z,19.29
2019-05-21T21:11:32.191Z,19.32
2019-05-21T21:14:17.431Z,19.34
2019-05-21T21:16:44.265Z,19.36
2019-05-21T21:19:16.351Z,19.38
2019-05-21T21:21:49.294Z,19.40
2019-05-21T21:24:21.644Z,19.42
2019-05-21T21:26:54.526Z,19.42
2019-05-21T21:29:26.633Z,19.41
2019-05-21T21:31:59.103Z,19.42
2019-05-21T21:34:31.142Z,19.43
2019-05-21T21:37:04.880Z,19.43
2019-05-21T21:39:37.914Z,19.41
2019-05-21T21:42:10.359Z,19.43
2019-05-21T21:44:42.819Z,19.43
2019-05-21T21:47:17.044Z,19.44
2019-05-21T21:49:49.955Z,19.46
2019-05-21T21:52:21.998Z,19.46
2019-05-21T21:54:55.457Z,19.47
2019-05-21T21:57:27.510Z,19.45
2019-05-21T21:59:59.454Z,19.45
2019-05-21T22:02:34.821Z,19.47
2019-05-21T22:05:09.467Z,19.46
2019-05-21T22:07:41.520Z,19.47
2019-05-21T22:10:13.775Z,19.48
2019-05-21T22:12:46.265Z,19.34
2019-05-21T22:15:18.383Z,19.48
2019-05-21T22:17:50.350Z,19.48
2019-05-21T22:20:22.876Z,19.47
2019-05-21T22:22:55.198Z,19.48
2019-05-21T22:25:27.802Z,19.47
2019-05-21T22:27:59.808Z,19.48
2019-05-21T22:30:32.497Z,19.46
2019-05-21T22:33:04.837Z,19.46
2019-05-21T22:35:36.980Z,19.46
2019-05-21T22:38:08.975Z,19.45
2019-05-21T22:40:41.255Z,19.46
2019-05-21T22:43:13.404Z,19.44
2019-05-21T22:45:45.505Z,19.43
2019-05-21T22:48:17.616Z,19.44
2019-05-21T22:50:49.867Z,19.45
2019-05-21T22:53:22.547Z,19.45
2019-05-21T22:55:54.934Z,19.45
2019-05-21T22:58:26.935Z,19.45
2019-05-21T23:01:00.570Z,19.43
2019-05-21T23:03:32.536Z,19.41
2019-05-21T23:06:04.913Z,19.39
2019-05-21T23:08:38.316Z,19.35
2019-05-21T23:11:10.575Z,19.32
2019-05-21T23:13:42.619Z,19.26
2019-05-21T23:16:15.237Z,19.21
2019-05-21T23:18:48.228Z,19.14
2019-05-21T23:21:20.552Z,19.06
2019-05-21T23:23:54.091Z,19.00
2019-05-21T23:26:26.658Z,18.95
2019-05-21T23:29:00.593Z,18.90
2019-05-21T23:31:33.046Z,18.87
2019-05-21T23:34:05.359Z,18.84
2019-05-21T23:36:37.520Z,18.81
2019-05-21T23:39:11.302Z,18.79
2019-05-21T23:41:45.281Z,18.78
2019-05-21T23:44:17.769Z,18.76
2019-05-21T23:46:49.908Z,18.76
2019-05-21T23:49:22.200Z,18.75
2019-05-21T23:51:54.562Z,18.73
2019-05-21T23:54:26.555Z,18.65
2019-05-21T23:56:59.462Z,18.59
2019-05-21T23:59:31.970Z,18.55
